createdAt,value
2018-03-24T00:01:00.474Z,99731.60
2018-03-24T00:03:26.605Z,99728.14
2018-03-24T00:05:52.862Z,99724.76
2018-03-24T00:08:18.885Z,99727.36
2018-03-24T00:10:45.122Z,99726.46
2018-03-24T00:13:11.172Z,99717.91
2018-03-24T00:15:37.278Z,99724.84
2018-03-24T00:18:03.310Z,99722.70
2018-03-24T00:20:29.361Z,99712.30
2018-03-24T00:22:55.429Z,99718.43
2018-03-24T00:25:21.516Z,99719.27
2018-03-24T00:27:47.643Z,99717.56
2018-03-24T00:30:13.671Z,99708.00
2018-03-24T00:32:39.879Z,99722.77
2018-03-24T00:35:05.980Z,99714.99
2018-03-24T00:37:32.044Z,99718.11
2018-03-24T00:39:58.240Z,99709.36
2018-03-24T00:42:24.305Z,99721.12
2018-03-24T00:44:50.326Z,99719.81
2018-03-24T00:50:10.039Z,99719.99
2018-03-24T00:52:36.076Z,99718.66
2018-03-24T00:55:02.168Z,99719.09
2018-03-24T00:57:28.253Z,99720.39
2018-03-24T00:59:54.354Z,99718.69
2018-03-24T01:02:20.587Z,99717.36
2018-03-24T01:04:46.692Z,99710.05
2018-03-24T01:07:12.729Z,99715.27
2018-03-24T01:09:38.959Z,99710.13
2018-03-24T01:12:05.042Z,99712.33
2018-03-24T01:14:31.097Z,99711.92
2018-03-24T01:16:57.181Z,99710.59
2018-03-24T01:19:23.215Z,99709.81
2018-03-24T01:21:49.263Z,99701.17
2018-03-24T01:24:15.376Z,99713.25
2018-03-24T01:26:41.453Z,99717.20
2018-03-24T01:29:07.513Z,99702.84
2018-03-24T01:31:33.545Z,99703.75
2018-03-24T01:33:59.610Z,99710.27
2018-03-24T01:36:25.641Z,99703.45
2018-03-24T01:38:51.718Z,99703.10
2018-03-24T01:41:18.090Z,99697.91
2018-03-24T01:43:44.114Z,99695.31
2018-03-24T01:46:10.243Z,99699.66
2018-03-24T01:48:36.302Z,99690.66
2018-03-24T01:51:02.365Z,99690.68
2018-03-24T01:53:40.851Z,99692.93
2018-03-24T01:56:06.931Z,99689.92
2018-03-24T01:58:33.105Z,99682.51
2018-03-24T02:00:59.170Z,99685.12
2018-03-24T02:03:25.239Z,99685.57
2018-03-24T02:05:51.298Z,99693.88
2018-03-24T02:08:17.615Z,99684.75
2018-03-24T02:10:43.714Z,99688.25
2018-03-24T02:13:09.786Z,99686.03
2018-03-24T02:15:35.915Z,99679.56
2018-03-24T02:18:16.867Z,99681.41
2018-03-24T02:20:42.920Z,99680.10
2018-03-24T02:23:08.964Z,99679.16
2018-03-24T02:25:35.020Z,99680.94
2018-03-24T02:28:01.055Z,99672.77
2018-03-24T02:30:27.095Z,99680.13
2018-03-24T02:32:53.167Z,99671.93
2018-03-24T02:35:19.237Z,99677.51
2018-03-24T02:37:45.251Z,99677.96
2018-03-24T02:40:11.356Z,99678.42
2018-03-24T02:42:37.431Z,99677.56
2018-03-24T02:45:03.543Z,99683.56
2018-03-24T02:47:29.571Z,99684.81
2018-03-24T02:49:55.604Z,99679.59
2018-03-24T02:52:21.684Z,99677.05
2018-03-24T02:54:47.722Z,99677.47
2018-03-24T02:57:14.048Z,99674.45
2018-03-24T02:59:40.136Z,99673.28
2018-03-24T03:02:06.211Z,99670.69
2018-03-24T03:04:32.238Z,99672.48
2018-03-24T03:06:58.294Z,99678.50
2018-03-24T03:09:24.376Z,99671.17
2018-03-24T03:11:50.440Z,99681.86
2018-03-24T03:14:16.548Z,99678.45
2018-03-24T03:16:42.813Z,99678.83
2018-03-24T03:19:08.855Z,99676.28
2018-03-24T03:21:47.267Z,99676.31
2018-03-24T03:24:13.342Z,99675.37
2018-03-24T03:26:39.454Z,99677.12
2018-03-24T03:29:05.462Z,99680.13
2018-03-24T03:31:31.515Z,99679.72
2018-03-24T03:33:57.662Z,99677.58
2018-03-24T03:36:23.729Z,99678.50
2018-03-24T03:38:49.896Z,99678.05
2018-03-24T03:41:16.174Z,99677.18
2018-03-24T03:43:42.257Z,99678.07
2018-03-24T03:46:08.593Z,99673.45
2018-03-24T03:48:34.671Z,99682.05
2018-03-24T03:51:00.749Z,99683.78
2018-03-24T03:53:26.842Z,99682.59
2018-03-24T03:55:52.900Z,99688.33
2018-03-24T03:58:18.963Z,99683.94
2018-03-24T04:00:45.024Z,99684.34
2018-03-24T04:03:11.095Z,99681.34
2018-03-24T04:05:37.152Z,99677.42
2018-03-24T04:08:03.206Z,99682.54
2018-03-24T04:10:29.328Z,99674.42
2018-03-24T04:12:55.369Z,99672.69
2018-03-24T04:15:21.492Z,99673.13
2018-03-24T04:17:47.528Z,99673.98
2018-03-24T04:20:13.626Z,99675.31
2018-03-24T04:22:39.693Z,99678.74
2018-03-24T04:25:05.740Z,99676.63
2018-03-24T04:27:32.079Z,99682.70
2018-03-24T04:29:58.152Z,99678.44
2018-03-24T04:32:24.209Z,99686.13
2018-03-24T04:34:50.277Z,99681.34
2018-03-24T04:37:16.334Z,99686.16
2018-03-24T04:39:42.383Z,99684.08
2018-03-24T04:42:08.444Z,99682.27
2018-03-24T04:44:34.855Z,99683.64
2018-03-24T04:47:00.880Z,99679.31
2018-03-24T04:49:26.917Z,99685.83
2018-03-24T04:51:53.222Z,99685.88
2018-03-24T04:54:19.289Z,99684.58
2018-03-24T04:56:45.388Z,99687.20
2018-03-24T04:59:11.455Z,99685.09
2018-03-24T05:01:37.517Z,99692.34
2018-03-24T05:04:03.572Z,99688.91
2018-03-24T05:06:29.603Z,99686.77
2018-03-24T05:08:55.652Z,99686.31
2018-03-24T05:11:21.744Z,99687.56
2018-03-24T05:13:47.773Z,99687.54
2018-03-24T05:16:14.027Z,99692.32
2018-03-24T05:18:40.098Z,99689.29
2018-03-24T05:21:06.201Z,99698.02
2018-03-24T05:23:32.237Z,99692.91
2018-03-24T05:25:58.252Z,99698.94
2018-03-24T05:28:24.298Z,99698.97
2018-03-24T05:30:50.353Z,99694.59
2018-03-24T05:33:16.421Z,99703.22
2018-03-24T05:35:42.491Z,99700.62
2018-03-24T05:38:08.614Z,99706.73
2018-03-24T05:40:34.683Z,99712.75
2018-03-24T05:43:00.757Z,99711.83
2018-03-24T05:45:26.812Z,99707.86
2018-03-24T05:47:52.837Z,99706.15
2018-03-24T05:50:19.021Z,99712.19
2018-03-24T05:52:45.123Z,99711.83
2018-03-24T05:55:11.143Z,99716.47
2018-03-24T05:57:37.434Z,99715.29
2018-03-24T06:00:03.502Z,99715.65
2018-03-24T06:02:29.558Z,99720.41
2018-03-24T06:04:55.598Z,99726.03
2018-03-24T06:07:21.859Z,99730.82
2018-03-24T06:09:47.942Z,99728.61
2018-03-24T06:12:14.037Z,99730.70
2018-03-24T06:14:40.069Z,99729.70
2018-03-24T06:17:06.160Z,99740.97
2018-03-24T06:19:32.262Z,99730.08
2018-03-24T06:21:58.274Z,99733.55
2018-03-24T06:24:24.425Z,99731.33
2018-03-24T06:26:50.464Z,99724.81
2018-03-24T06:29:16.529Z,99726.06
2018-03-24T06:31:47.697Z,99731.23
2018-03-24T06:34:13.901Z,99723.87
2018-03-24T06:39:41.587Z,99731.23
2018-03-24T06:42:07.659Z,99733.34
2018-03-24T06:44:33.689Z,99737.55
2018-03-24T06:46:59.759Z,99728.45
2018-03-24T06:49:25.817Z,99735.78
2018-03-24T06:51:51.881Z,99745.23
2018-03-24T06:54:17.951Z,99739.38
2018-03-24T06:56:44.035Z,99743.23
2018-03-24T06:59:10.078Z,99740.61
2018-03-24T07:01:36.316Z,99737.89
2018-03-24T07:04:02.577Z,99740.49
2018-03-24T07:06:28.624Z,99739.52
2018-03-24T07:08:54.725Z,99747.72
2018-03-24T07:11:20.760Z,99747.61
2018-03-24T07:13:47.158Z,99752.78
2018-03-24T07:16:13.238Z,99754.84
2018-03-24T07:18:39.511Z,99762.59
2018-03-24T07:21:05.586Z,99757.23
2018-03-24T07:23:31.760Z,99761.80
2018-03-24T07:25:57.809Z,99764.69
2018-03-24T07:28:23.873Z,99759.77
2018-03-24T07:30:49.893Z,99763.13
2018-03-24T07:33:15.924Z,99762.57
2018-03-24T07:35:41.972Z,99765.39
2018-03-24T07:38:08.014Z,99758.67
2018-03-24T07:40:34.230Z,99761.05
2018-03-24T07:43:00.343Z,99759.92
2018-03-24T07:45:26.549Z,99765.94
2018-03-24T07:47:52.633Z,99761.94
2018-03-24T07:50:18.671Z,99759.09
2018-03-24T07:52:44.867Z,99762.80
2018-03-24T07:55:10.927Z,99764.41
2018-03-24T07:57:37.204Z,99769.08
2018-03-24T08:00:03.275Z,99763.70
2018-03-24T08:02:29.306Z,99765.30
2018-03-24T08:04:55.357Z,99766.94
2018-03-24T08:07:21.585Z,99771.07
2018-03-24T08:09:47.754Z,99770.56
2018-03-24T08:12:13.782Z,99773.97
2018-03-24T08:14:39.869Z,99779.05
2018-03-24T08:17:05.951Z,99777.48
2018-03-24T08:19:32.059Z,99773.80
2018-03-24T08:21:58.113Z,99772.75
2018-03-24T08:24:24.237Z,99774.22
2018-03-24T08:26:50.477Z,99772.84
2018-03-24T08:29:16.516Z,99780.52
2018-03-24T08:31:42.627Z,99776.17
2018-03-24T08:34:08.651Z,99774.36
2018-03-24T08:36:34.659Z,99779.14
2018-03-24T08:39:00.765Z,99777.10
2018-03-24T08:41:26.808Z,99780.35
2018-03-24T08:43:52.920Z,99784.35
2018-03-24T08:46:19.018Z,99778.54
2018-03-24T08:48:45.087Z,99782.61
2018-03-24T08:51:11.135Z,99780.47
2018-03-24T08:53:37.232Z,99783.95
2018-03-24T08:56:03.299Z,99784.45
2018-03-24T08:58:29.325Z,99784.28
2018-03-24T09:00:55.474Z,99783.69
2018-03-24T09:03:21.736Z,99782.83
2018-03-24T09:05:48.075Z,99787.94
2018-03-24T09:08:14.126Z,99785.19
2018-03-24T09:10:40.203Z,99789.50
2018-03-24T09:13:06.342Z,99786.28
2018-03-24T09:15:32.518Z,99785.02
2018-03-24T09:17:58.553Z,99792.73
2018-03-24T09:20:24.572Z,99785.36
2018-03-24T09:22:50.663Z,99790.08
2018-03-24T09:25:16.726Z,99784.58
2018-03-24T09:27:42.953Z,99787.06
2018-03-24T09:30:08.968Z,99778.27
2018-03-24T09:32:35.007Z,99769.73
2018-03-24T09:35:01.095Z,99774.91
2018-03-24T09:37:27.208Z,99775.11
2018-03-24T09:39:53.243Z,99774.45
2018-03-24T09:42:19.317Z,99779.98
2018-03-24T09:44:45.430Z,99780.67
2018-03-24T09:47:11.472Z,99781.36
2018-03-24T09:49:37.742Z,99779.87
2018-03-24T09:52:03.788Z,99775.48
2018-03-24T09:54:29.851Z,99778.80
2018-03-24T09:56:55.896Z,99775.45
2018-03-24T09:59:21.995Z,99786.88
2018-03-24T10:01:48.017Z,99785.24
2018-03-24T10:04:14.082Z,99787.91
2018-03-24T10:06:40.233Z,99787.55
2018-03-24T10:09:06.441Z,99785.28
2018-03-24T10:11:32.571Z,99781.16
2018-03-24T10:13:58.640Z,99786.17
2018-03-24T10:16:24.751Z,99778.26
2018-03-24T10:18:50.936Z,99781.65
2018-03-24T10:24:26.458Z,99784.09
2018-03-24T10:26:52.725Z,99778.58
2018-03-24T10:29:18.968Z,99777.34
2018-03-24T10:31:46.285Z,99768.44
2018-03-24T10:34:12.840Z,99768.12
2018-03-24T10:36:39.162Z,99764.42
2018-03-24T10:39:05.218Z,99768.48
2018-03-24T10:41:31.366Z,99767.45
2018-03-24T10:43:57.596Z,99774.41
2018-03-24T10:46:23.871Z,99768.12
2018-03-24T10:48:49.941Z,99766.71
2018-03-24T10:51:15.991Z,99760.97
2018-03-24T10:53:42.091Z,99754.46
2018-03-24T10:56:08.141Z,99758.81
2018-03-24T10:58:34.202Z,99763.48
2018-03-24T11:01:03.428Z,99749.70
2018-03-24T11:03:29.522Z,99761.62
2018-03-24T11:05:55.778Z,99751.89
2018-03-24T11:08:21.814Z,99759.59
2018-03-24T11:10:47.948Z,99754.66
2018-03-24T11:13:14.019Z,99752.59
2018-03-24T11:15:40.128Z,99750.96
2018-03-24T11:18:06.209Z,99757.67
2018-03-24T11:20:32.290Z,99743.72
2018-03-24T11:22:58.455Z,99747.79
2018-03-24T11:25:24.479Z,99749.67
2018-03-24T11:27:50.539Z,99749.80
2018-03-24T11:30:16.597Z,99757.47
2018-03-24T11:32:42.785Z,99754.29
2018-03-24T11:35:08.875Z,99748.60
2018-03-24T11:37:35.029Z,99742.83
2018-03-24T11:40:01.489Z,99742.47
2018-03-24T11:42:27.562Z,99751.26
2018-03-24T11:44:53.635Z,99757.56
2018-03-24T11:47:19.831Z,99749.08
2018-03-24T11:49:45.882Z,99757.59
2018-03-24T11:52:12.172Z,99755.45
2018-03-24T11:54:43.888Z,99753.69
2018-03-24T11:57:09.941Z,99751.27
2018-03-24T11:59:36.041Z,99759.23
2018-03-24T12:02:02.089Z,99749.14
2018-03-24T12:04:28.152Z,99757.45
2018-03-24T12:06:54.260Z,99748.84
2018-03-24T12:09:20.325Z,99747.53
2018-03-24T12:11:46.467Z,99749.48
2018-03-24T12:14:12.539Z,99750.00
2018-03-24T12:16:38.637Z,99748.63
2018-03-24T12:19:04.767Z,99750.52
2018-03-24T12:21:30.819Z,99748.34
2018-03-24T12:23:56.980Z,99746.66
2018-03-24T12:26:23.018Z,99743.79
2018-03-24T12:28:49.085Z,99743.98
2018-03-24T12:31:15.203Z,99741.45
2018-03-24T12:33:41.313Z,99745.29
2018-03-24T12:36:07.342Z,99743.52
2018-03-24T12:38:33.374Z,99736.77
2018-03-24T12:40:59.580Z,99731.90
2018-03-24T12:43:25.644Z,99737.73
2018-03-24T12:45:51.682Z,99741.98
2018-03-24T12:48:17.868Z,99742.04
2018-03-24T12:50:43.893Z,99736.89
2018-03-24T12:53:10.071Z,99739.00
2018-03-24T12:55:36.105Z,99737.91
2018-03-24T12:58:02.175Z,99741.28
2018-03-24T13:00:28.270Z,99740.42
2018-03-24T13:02:54.483Z,99743.91
2018-03-24T13:05:20.766Z,99745.28
2018-03-24T13:07:46.774Z,99745.66
2018-03-24T13:10:13.267Z,99737.79
2018-03-24T13:12:39.317Z,99745.72
2018-03-24T13:15:05.376Z,99739.75
2018-03-24T13:17:31.425Z,99743.84
2018-03-24T13:19:57.464Z,99740.20
2018-03-24T13:22:23.507Z,99734.27
2018-03-24T13:24:49.570Z,99743.70
2018-03-24T13:27:15.600Z,99739.84
2018-03-24T13:29:41.654Z,99740.52
2018-03-24T13:32:08.101Z,99743.66
2018-03-24T13:34:34.177Z,99742.48
2018-03-24T13:37:00.228Z,99735.63
2018-03-24T13:39:26.298Z,99740.86
2018-03-24T13:41:52.354Z,99734.39
2018-03-24T13:44:18.397Z,99735.70
2018-03-24T13:46:44.438Z,99743.16
2018-03-24T13:49:10.558Z,99741.89
2018-03-24T13:51:36.602Z,99741.11
2018-03-24T13:54:02.677Z,99739.23
2018-03-24T13:56:28.759Z,99736.41
2018-03-24T13:58:54.782Z,99739.86
2018-03-24T14:01:20.891Z,99742.89
2018-03-24T14:03:46.975Z,99747.18
2018-03-24T14:06:12.994Z,99735.77
2018-03-24T14:08:39.066Z,99748.09
2018-03-24T14:11:05.105Z,99745.35
2018-03-24T14:13:31.277Z,99743.40
2018-03-24T14:15:57.328Z,99741.02
2018-03-24T14:18:23.391Z,99738.47
2018-03-24T14:20:49.443Z,99739.27
2018-03-24T14:23:15.548Z,99737.63
2018-03-24T14:25:41.640Z,99748.28
2018-03-24T14:28:07.683Z,99741.59
2018-03-24T14:30:33.765Z,99741.28
2018-03-24T14:32:59.854Z,99739.65
2018-03-24T14:35:25.901Z,99738.77
2018-03-24T14:37:52.103Z,99741.95
2018-03-24T14:40:18.156Z,99739.45
2018-03-24T14:42:44.563Z,99740.16
2018-03-24T14:45:10.851Z,99733.87
2018-03-24T14:47:36.979Z,99730.50
2018-03-24T14:50:03.062Z,99725.93
2018-03-24T14:52:29.323Z,99727.45
2018-03-24T14:54:55.372Z,99725.25
2018-03-24T14:57:21.528Z,99724.31
2018-03-24T14:59:47.920Z,99726.37
2018-03-24T15:02:13.984Z,99722.36
2018-03-24T15:04:40.036Z,99726.80
2018-03-24T15:07:06.112Z,99731.45
2018-03-24T15:09:32.288Z,99731.56
2018-03-24T15:11:58.377Z,99734.28
2018-03-24T15:14:24.410Z,99726.58
2018-03-24T15:16:51.449Z,99724.45
2018-03-24T15:19:17.540Z,99725.06
2018-03-24T15:21:43.622Z,99723.01
2018-03-24T15:24:09.706Z,99727.05
2018-03-24T15:26:35.819Z,99728.55
2018-03-24T15:29:14.340Z,99724.58
2018-03-24T15:31:52.713Z,99720.63
2018-03-24T15:34:31.227Z,99722.15
2018-03-24T15:36:57.254Z,99727.48
2018-03-24T15:39:23.425Z,99723.79
2018-03-24T15:41:49.500Z,99729.32
2018-03-24T15:44:15.623Z,99732.94
2018-03-24T15:46:41.690Z,99728.91
2018-03-24T15:49:07.759Z,99735.58
2018-03-24T15:51:33.781Z,99731.09
2018-03-24T15:53:59.846Z,99733.06
2018-03-24T15:56:26.220Z,99732.40
2018-03-24T15:58:52.258Z,99732.88
2018-03-24T16:01:18.381Z,99730.84
2018-03-24T16:03:44.423Z,99732.83
2018-03-24T16:06:10.664Z,99734.36
2018-03-24T16:08:36.732Z,99738.23
2018-03-24T16:11:02.831Z,99738.70
2018-03-24T16:13:28.906Z,99745.67
2018-03-24T16:15:55.083Z,99744.48
2018-03-24T16:18:21.177Z,99755.06
2018-03-24T16:20:47.270Z,99753.55
2018-03-24T16:23:13.556Z,99753.98
2018-03-24T16:25:39.618Z,99754.53
2018-03-24T16:28:05.717Z,99752.05
2018-03-24T16:30:31.773Z,99761.45
2018-03-24T16:33:12.754Z,99763.34
2018-03-24T16:35:38.798Z,99757.00
2018-03-24T16:38:04.874Z,99757.05
2018-03-24T16:40:30.979Z,99761.70
2018-03-24T16:42:57.062Z,99766.74
2018-03-24T16:45:23.253Z,99764.61
2018-03-24T16:47:49.234Z,99768.16
2018-03-24T16:50:15.260Z,99772.67
2018-03-24T16:52:41.339Z,99776.58
2018-03-24T16:55:07.525Z,99772.78
2018-03-24T16:57:33.831Z,99776.83
2018-03-24T16:59:59.877Z,99774.35
2018-03-24T17:02:25.967Z,99782.55
2018-03-24T17:04:52.269Z,99781.55
2018-03-24T17:07:18.310Z,99786.70
2018-03-24T17:09:44.492Z,99793.09
2018-03-24T17:12:10.678Z,99789.46
2018-03-24T17:14:36.749Z,99791.79
2018-03-24T17:17:02.801Z,99791.50
2018-03-24T17:19:29.062Z,99800.45
2018-03-24T17:21:55.132Z,99798.91
2018-03-24T17:24:21.776Z,99803.89
2018-03-24T17:26:47.861Z,99804.12
2018-03-24T17:29:13.917Z,99805.61
2018-03-24T17:31:40.070Z,99804.75
2018-03-24T17:34:06.453Z,99801.97
2018-03-24T17:36:32.512Z,99813.79
2018-03-24T17:38:58.573Z,99808.73
2018-03-24T17:41:24.669Z,99810.66
2018-03-24T17:43:50.931Z,99814.23
2018-03-24T17:46:16.998Z,99815.29
2018-03-24T17:48:43.210Z,99819.30
2018-03-24T17:51:09.263Z,99820.17
2018-03-24T17:53:35.333Z,99820.27
2018-03-24T17:56:01.720Z,99828.55
2018-03-24T17:58:27.778Z,99830.06
2018-03-24T18:00:54.313Z,99826.32
2018-03-24T18:03:20.413Z,99822.48
2018-03-24T18:05:46.903Z,99828.72
2018-03-24T18:08:14.435Z,99830.03
2018-03-24T18:10:40.513Z,99830.15
2018-03-24T18:13:06.662Z,99828.55
2018-03-24T18:15:32.711Z,99835.63
2018-03-24T18:17:59.002Z,99837.06
2018-03-24T18:20:25.046Z,99828.48
2018-03-24T18:22:51.098Z,99841.59
2018-03-24T18:25:17.173Z,99839.97
2018-03-24T18:27:43.245Z,99840.73
2018-03-24T18:30:09.339Z,99839.88
2018-03-24T18:32:35.349Z,99839.95
2018-03-24T18:35:01.458Z,99843.04
2018-03-24T18:37:27.511Z,99841.06
2018-03-24T18:39:53.647Z,99843.25
2018-03-24T18:42:19.805Z,99841.78
2018-03-24T18:44:45.857Z,99849.27
2018-03-24T18:47:11.946Z,99850.84
2018-03-24T18:49:38.002Z,99852.11
2018-03-24T18:52:04.338Z,99849.30
2018-03-24T18:54:30.512Z,99852.89
2018-03-24T18:56:56.577Z,99853.59
2018-03-24T18:59:22.773Z,99854.00
2018-03-24T19:01:48.824Z,99855.16
2018-03-24T19:04:14.919Z,99863.01
2018-03-24T19:06:41.027Z,99866.70
2018-03-24T19:09:07.139Z,99864.83
2018-03-24T19:11:33.279Z,99869.61
2018-03-24T19:13:59.335Z,99872.02
2018-03-24T19:16:25.518Z,99878.02
2018-03-24T19:18:51.686Z,99872.30
2018-03-24T19:21:17.751Z,99878.41
2018-03-24T19:23:44.951Z,99876.62
2018-03-24T19:26:11.287Z,99877.86
2018-03-24T19:28:38.234Z,99875.66
2018-03-24T19:31:04.333Z,99888.53
2018-03-24T19:33:31.207Z,99883.31
2018-03-24T19:35:57.308Z,99888.00
2018-03-24T19:38:23.454Z,99886.94
2018-03-24T19:40:49.577Z,99890.06
2018-03-24T19:43:15.854Z,99892.35
2018-03-24T19:45:41.914Z,99890.56
2018-03-24T19:48:07.993Z,99888.83
2018-03-24T19:50:34.095Z,99889.05
2018-03-24T19:53:00.200Z,99892.53
2018-03-24T19:55:26.546Z,99892.19
2018-03-24T19:57:52.749Z,99893.42
2018-03-24T20:00:18.920Z,99893.03
2018-03-24T20:02:45.958Z,99897.48
2018-03-24T20:05:12.124Z,99896.96
2018-03-24T20:07:38.290Z,99899.72
2018-03-24T20:10:04.429Z,99900.13
2018-03-24T20:12:30.483Z,99905.77
2018-03-24T20:14:56.609Z,99910.26
2018-03-24T20:17:22.643Z,99912.52
2018-03-24T20:19:48.703Z,99902.59
2018-03-24T20:22:14.801Z,99902.19
2018-03-24T20:24:55.775Z,99901.87
2018-03-24T20:27:21.943Z,99902.42
2018-03-24T20:29:47.997Z,99905.55
2018-03-24T20:32:14.060Z,99905.58
2018-03-24T20:34:40.171Z,99905.34
2018-03-24T20:37:06.199Z,99903.31
2018-03-24T20:39:32.645Z,99900.83
2018-03-24T20:41:58.752Z,99906.75
2018-03-24T20:44:24.783Z,99908.63
2018-03-24T20:46:50.953Z,99916.46
2018-03-24T20:49:17.029Z,99909.12
2018-03-24T20:51:43.157Z,99907.88
2018-03-24T20:54:09.328Z,99910.52
2018-03-24T20:56:35.388Z,99915.52
2018-03-24T20:59:01.430Z,99918.52
2018-03-24T21:01:27.546Z,99913.40
2018-03-24T21:03:53.550Z,99919.09
2018-03-24T21:06:19.650Z,99923.83
2018-03-24T21:08:45.726Z,99917.13
2018-03-24T21:11:12.072Z,99922.02
2018-03-24T21:13:38.299Z,99918.98
2018-03-24T21:16:04.483Z,99927.25
2018-03-24T21:18:30.622Z,99928.09
2018-03-24T21:20:56.847Z,99932.59
2018-03-24T21:23:22.945Z,99934.81
2018-03-24T21:25:49.266Z,99929.71
2018-03-24T21:28:15.356Z,99940.27
2018-03-24T21:30:41.429Z,99934.73
2018-03-24T21:33:07.553Z,99935.70
2018-03-24T21:42:18.124Z,99944.51
2018-03-24T21:44:44.211Z,99943.89
2018-03-24T21:47:10.272Z,99946.17
2018-03-24T21:49:36.567Z,99947.13
2018-03-24T21:52:02.736Z,99949.37
2018-03-24T21:54:29.071Z,99952.02
2018-03-24T21:56:55.178Z,99955.18
2018-03-24T21:59:21.253Z,99956.22
2018-03-24T22:01:47.414Z,99956.73
2018-03-24T22:04:13.744Z,99955.11
2018-03-24T22:06:39.939Z,99955.69
2018-03-24T22:09:06.050Z,99955.84
2018-03-24T22:11:32.387Z,99952.92
2018-03-24T22:13:58.566Z,99953.47
2018-03-24T22:16:24.679Z,99950.12
2018-03-24T22:18:50.768Z,99950.63
2018-03-24T22:21:16.872Z,99953.33
2018-03-24T22:23:42.958Z,99955.13
2018-03-24T22:26:09.109Z,99953.91
2018-03-24T22:28:35.179Z,99956.09
2018-03-24T22:31:01.249Z,99954.83
2018-03-24T22:33:27.282Z,99945.38
2018-03-24T22:35:53.350Z,99949.69
2018-03-24T22:38:19.415Z,99949.75
2018-03-24T22:40:45.463Z,99945.44
2018-03-24T22:43:11.568Z,99946.34
2018-03-24T22:45:37.851Z,99940.78
2018-03-24T22:48:03.905Z,99943.80
2018-03-24T22:50:30.005Z,99953.37
2018-03-24T22:52:56.038Z,99949.09
2018-03-24T22:55:22.133Z,99945.67
2018-03-24T22:57:48.214Z,99948.66
2018-03-24T23:00:14.284Z,99950.44
2018-03-24T23:02:40.380Z,99949.17
2018-03-24T23:05:06.611Z,99953.51
2018-03-24T23:07:32.652Z,99959.59
2018-03-24T23:09:58.907Z,99948.41
2018-03-24T23:12:25.082Z,99954.42
2018-03-24T23:14:51.141Z,99955.30
2018-03-24T23:17:17.211Z,99954.51
2018-03-24T23:19:43.379Z,99958.02
2018-03-24T23:22:09.462Z,99953.27
2018-03-24T23:24:35.573Z,99951.62
2018-03-24T23:27:01.658Z,99947.27
2018-03-24T23:29:27.699Z,99951.13
2018-03-24T23:31:53.743Z,99952.44
2018-03-24T23:34:19.847Z,99951.98
2018-03-24T23:36:45.915Z,99952.89
2018-03-24T23:39:12.043Z,99946.45
2018-03-24T23:41:38.061Z,99951.67
2018-03-24T23:44:04.235Z,99944.77
2018-03-24T23:46:30.295Z,99952.16
2018-03-24T23:48:57.462Z,99949.55
2018-03-24T23:51:23.509Z,99953.02
2018-03-24T23:53:49.575Z,99948.70
2018-03-24T23:56:15.619Z,99949.60
2018-03-24T23:58:41.655Z,99948.31
